Map

Track Data

SID SEASON NUMBER BASIN SUBBASIN NAME ISO_TIME NATURE LAT LON WMO_WIND WMO_PRES WMO_AGENCY TRACK_TYPE DIST2LAND LANDFALL IFLAG USA_AGENCY USA_ATCF_ID USA_LAT USA_LON USA_RECORD USA_STATUS USA_WIND USA_PRES USA_SSHS USA_R34_NE USA_R34_SE USA_R34_SW USA_R34_NW USA_R50_NE USA_R50_SE USA_R50_SW USA_R50_NW USA_R64_NE USA_R64_SE USA_R64_SW USA_R64_NW USA_POCI USA_ROCI USA_RMW USA_EYE TOKYO_LAT TOKYO_LON TOKYO_GRADE TOKYO_WIND TOKYO_PRES TOKYO_R50_DIR TOKYO_R50_LONG TOKYO_R50_SHORT TOKYO_R30_DIR TOKYO_R30_LONG TOKYO_R30_SHORT TOKYO_LAND CMA_LAT CMA_LON CMA_CAT CMA_WIND CMA_PRES HKO_LAT HKO_LON HKO_CAT HKO_WIND HKO_PRES NEWDELHI_LAT NEWDELHI_LON NEWDELHI_GRADE NEWDELHI_WIND NEWDELHI_PRES NEWDELHI_CI NEWDELHI_DP NEWDELHI_POCI REUNION_LAT REUNION_LON REUNION_TYPE REUNION_WIND REUNION_PRES REUNION_TNUM REUNION_CI REUNION_RMW REUNION_R34_NE REUNION_R34_SE REUNION_R34_SW REUNION_R34_NW REUNION_R50_NE REUNION_R50_SE REUNION_R50_SW REUNION_R50_NW REUNION_R64_NE REUNION_R64_SE REUNION_R64_SW REUNION_R64_NW BOM_LAT BOM_LON BOM_TYPE BOM_WIND BOM_PRES BOM_TNUM BOM_CI BOM_RMW BOM_R34_NE BOM_R34_SE BOM_R34_SW BOM_R34_NW BOM_R50_NE BOM_R50_SE BOM_R50_SW BOM_R50_NW BOM_R64_NE BOM_R64_SE BOM_R64_SW BOM_R64_NW BOM_ROCI BOM_POCI BOM_EYE BOM_POS_METHOD BOM_PRES_METHOD NADI_LAT NADI_LON NADI_CAT NADI_WIND NADI_PRES WELLINGTON_LAT WELLINGTON_LON WELLINGTON_WIND WELLINGTON_PRES DS824_LAT DS824_LON DS824_STAGE DS824_WIND DS824_PRES TD9636_LAT TD9636_LON TD9636_STAGE TD9636_WIND TD9636_PRES TD9635_LAT TD9635_LON TD9635_WIND TD9635_PRES TD9635_ROCI NEUMANN_LAT NEUMANN_LON NEUMANN_CLASS NEUMANN_WIND NEUMANN_PRES MLC_LAT MLC_LON MLC_CLASS MLC_WIND MLC_PRES USA_GUST BOM_GUST BOM_GUST_PER REUNION_GUST REUNION_GUST_PER USA_SEAHGT USA_SEARAD_NE USA_SEARAD_SE USA_SEARAD_SW USA_SEARAD_NW STORM_SPEED STORM_DIR
1969263N24275 1969 84 NA GM NOT_NAMED 1969-09-19 12:00:00 TS 24.0000 -85.4000 30 hurdat_atl main 203 203 O_____________ hurdat_atl AL191969 24.0000 -85.4000 TD 30 -1 5 340
1969263N24275 1969 84 NA GM NOT_NAMED 1969-09-19 15:00:00 TS 24.2525 -85.4999 main 235 235 P_____________ AL191969 24.2525 -85.4999 TD 30 -1 5 340
1969263N24275 1969 84 NA GM NOT_NAMED 1969-09-19 18:00:00 TS 24.5000 -85.6000 30 1007 hurdat_atl main 258 258 O_____________ hurdat_atl AL191969 24.5000 -85.6000 TD 30 1007 -1 5 340
1969263N24275 1969 84 NA GM NOT_NAMED 1969-09-19 21:00:00 TS 24.7425 -85.7001 main 282 282 P_____________ AL191969 24.7425 -85.7001 TD 30 -1 5 340
1969263N24275 1969 84 NA GM NOT_NAMED 1969-09-20 00:00:00 TS 25.0000 -85.8000 30 hurdat_atl main 315 315 O_____________ hurdat_atl AL191969 25.0000 -85.8000 TD 30 -1 6 341
1969263N24275 1969 84 NA GM NOT_NAMED 1969-09-20 03:00:00 TS 25.2775 -85.9001 main 348 348 P_____________ AL191969 25.2775 -85.9001 TD 30 -1 6 343
1969263N24275 1969 84 NA GM NOT_NAMED 1969-09-20 06:00:00 TS 25.6000 -86.0000 30 hurdat_atl main 382 376 O_____________ hurdat_atl AL191969 25.6000 -86.0000 TD 30 -1 7 345
1969263N24275 1969 84 NA GM NOT_NAMED 1969-09-20 09:00:00 TS 25.9850 -86.1075 main 376 366 P_____________ AL191969 25.9850 -86.1075 TD 30 -1 8 347
1969263N24275 1969 84 NA GM NOT_NAMED 1969-09-20 12:00:00 TS 26.4000 -86.2000 30 hurdat_atl main 366 335 O_____________ hurdat_atl AL191969 26.4000 -86.2000 TD 30 -1 8 350
1969263N24275 1969 84 NA GM NOT_NAMED 1969-09-20 15:00:00 TS 26.7850 -86.2650 main 335 292 P_____________ AL191969 26.7850 -86.2650 TD 30 -1 8 354
1969263N24275 1969 84 NA GM NOT_NAMED 1969-09-20 18:00:00 TS 27.2000 -86.3000 30 hurdat_atl main 292 239 O_____________ hurdat_atl AL191969 27.2000 -86.3000 TD 30 -1 9 358
1969263N24275 1969 84 NA GM NOT_NAMED 1969-09-20 21:00:00 TS 27.6850 -86.3150 main 239 188 P_____________ AL191969 27.6850 -86.3150 TD 30 -1 10 1
1969263N24275 1969 84 NA GM NOT_NAMED 1969-09-21 00:00:00 TS 28.2000 -86.3000 30 hurdat_atl main 188 141 O_____________ hurdat_atl AL191969 28.2000 -86.3000 TD 30 -1 10 3
1969263N24275 1969 84 NA GM NOT_NAMED 1969-09-21 03:00:00 TS 28.7075 -86.2576 main 141 95 P_____________ AL191969 28.7075 -86.2576 TD 30 -1 10 5
1969263N24275 1969 84 NA GM NOT_NAMED 1969-09-21 06:00:00 TS 29.2000 -86.2000 30 hurdat_atl main 95 62 O_____________ hurdat_atl AL191969 29.2000 -86.2000 TD 30 -1 10 6
1969263N24275 1969 84 NA GM NOT_NAMED 1969-09-21 09:00:00 TS 29.6800 -86.1500 main 58 22 P_____________ AL191969 29.6800 -86.1500 TD 30 -1 9 5
1969263N24275 1969 84 NA GM NOT_NAMED 1969-09-21 12:00:00 TS 30.1000 -86.1000 30 hurdat_atl main 22 0 O_____________ hurdat_atl AL191969 30.1000 -86.1000 TD 30 -1 8 7
1969263N24275 1969 84 NA NA NOT_NAMED 1969-09-21 15:00:00 TS 30.4525 -86.0425 main 0 0 P_____________ AL191969 30.4525 -86.0425 TD 30 -1 6 8
1969263N24275 1969 84 NA NA NOT_NAMED 1969-09-21 18:00:00 TS 30.7000 -86.0000 30 hurdat_atl main 0 0 O_____________ hurdat_atl AL191969 30.7000 -86.0000 TD 30 -1 4 7
1969263N24275 1969 84 NA NA NOT_NAMED 1969-09-21 21:00:00 TS 30.8375 -85.9924 main 0 0 P_____________ AL191969 30.8375 -85.9924 TD 27 -1 2 8
1969263N24275 1969 84 NA NA NOT_NAMED 1969-09-22 00:00:00 TS 30.9000 -86.0000 25 hurdat_atl main 0 0 O_____________ hurdat_atl AL191969 30.9000 -86.0000 TD 25 -1 1 0
1969263N24275 1969 84 NA NA NOT_NAMED 1969-09-22 03:00:00 TS 30.9575 -86.0000 main 0 0 P_____________ AL191969 30.9575 -86.0000 TD 25 -1 1 0
1969263N24275 1969 84 NA NA NOT_NAMED 1969-09-22 06:00:00 TS 31.0000 -86.0000 25 hurdat_atl main 0 0 O_____________ hurdat_atl AL191969 31.0000 -86.0000 TD 25 -1 1 0
1969263N24275 1969 84 NA NA NOT_NAMED 1969-09-22 09:00:00 TS 31.0575 -86.0000 main 0 0 P_____________ AL191969 31.0575 -86.0000 TD 22 -1 1 0
1969263N24275 1969 84 NA NA NOT_NAMED 1969-09-22 12:00:00 TS 31.1000 -86.0000 20 hurdat_atl main 0 0 O_____________ hurdat_atl AL191969 31.1000 -86.0000 TD 20 -1 1 27
1969263N24275 1969 84 NA NA NOT_NAMED 1969-09-22 15:00:00 TS 31.1075 -86.0000 main 0 0 P_____________ AL191969 31.1075 -86.0000 TD 20 -1 0 0
1969263N24275 1969 84 NA NA NOT_NAMED 1969-09-22 18:00:00 TS 31.1000 -86.0000 20 hurdat_atl main 0 0 O_____________ hurdat_atl AL191969 31.1000 -86.0000 TD 20 -1 0 0
1969263N24275 1969 84 NA NA NOT_NAMED 1969-09-22 21:00:00 TS 31.1000 -86.0000 main 0 0 P_____________ AL191969 31.1000 -86.0000 TD 20 -1 0 0
1969263N24275 1969 84 NA NA NOT_NAMED 1969-09-23 00:00:00 TS 31.1000 -86.0000 20 hurdat_atl main 0 0 O_____________ hurdat_atl AL191969 31.1000 -86.0000 TD 20 -1 0 0
1969263N24275 1969 84 NA NA NOT_NAMED 1969-09-23 03:00:00 TS 31.1000 -86.0000 main 0 0 P_____________ AL191969 31.1000 -86.0000 TD 20 -1 0 0
1969263N24275 1969 84 NA NA NOT_NAMED 1969-09-23 06:00:00 TS 31.1000 -86.0000 20 hurdat_atl main 0 0 O_____________ hurdat_atl AL191969 31.1000 -86.0000 TD 20 -1 0 0
1969263N24275 1969 84 NA NA NOT_NAMED 1969-09-23 09:00:00 TS 31.1000 -86.0000 main 0 0 P_____________ AL191969 31.1000 -86.0000 TD 20 -1 0 0
1969263N24275 1969 84 NA NA NOT_NAMED 1969-09-23 12:00:00 TS 31.1000 -86.0000 20 hurdat_atl main 0 O_____________ hurdat_atl AL191969 31.1000 -86.0000 TD 20 -1 0 0

About IBTrACS Database

This database is a web-friendly format of International Best Track Archive for Climate Stewardship (IBTrACS), a global best track data archive curated by NOAA dating back to 1842.

Updated: 2022-05-26